createdAt,value
2019-01-15T00:00:49.798Z,0.30
2019-01-15T00:03:30.875Z,0.30
2019-01-15T00:06:11.933Z,0.30
2019-01-15T00:08:53.131Z,0.40
2019-01-15T00:11:34.780Z,0.40
2019-01-15T00:14:15.347Z,0.40
2019-01-15T00:16:56.288Z,0.40
2019-01-15T00:22:42.199Z,0.40
2019-01-15T00:25:23.218Z,0.40
2019-01-15T00:28:04.023Z,0.40
2019-01-15T00:34:00.955Z,0.40
2019-01-15T00:36:42.269Z,0.40
2019-01-15T00:39:23.086Z,0.40
2019-01-15T00:42:04.204Z,0.40
2019-01-15T00:44:45.056Z,0.40
2019-01-15T00:47:25.876Z,0.40
2019-01-15T00:50:07.110Z,0.40
2019-01-15T00:52:47.954Z,0.50
2019-01-15T00:55:28.879Z,0.50
2019-01-15T00:58:09.677Z,0.50
2019-01-15T01:00:48.987Z,0.60
2019-01-15T01:03:37.227Z,0.60
2019-01-15T01:06:25.443Z,0.70
2019-01-15T01:09:13.812Z,0.60
2019-01-15T01:12:02.087Z,0.60
2019-01-15T01:14:50.643Z,0.60
2019-01-15T01:17:38.939Z,0.60
2019-01-15T01:20:27.246Z,0.60
2019-01-15T01:23:15.488Z,0.60
2019-01-15T01:29:29.219Z,0.60
2019-01-15T01:32:17.764Z,0.60
2019-01-15T01:35:06.133Z,0.60
2019-01-15T01:41:25.452Z,0.60
2019-01-15T01:44:14.079Z,0.60
2019-01-15T01:47:02.747Z,0.60
2019-01-15T01:49:51.002Z,0.50
2019-01-15T01:52:39.286Z,0.60
2019-01-15T01:55:27.527Z,0.60
2019-01-15T01:58:08.782Z,0.60
2019-01-15T02:00:49.863Z,0.60
2019-01-15T02:03:30.635Z,0.60
2019-01-15T02:06:11.131Z,0.60
2019-01-15T02:08:51.976Z,0.60
2019-01-15T02:11:32.724Z,0.60
2019-01-15T02:14:13.327Z,0.60
2019-01-15T02:16:54.380Z,0.60
2019-01-15T02:19:35.619Z,0.60
2019-01-15T02:25:34.275Z,0.60
2019-01-15T02:28:15.004Z,0.60
2019-01-15T02:30:56.107Z,0.60
2019-01-15T02:33:37.311Z,0.60
2019-01-15T02:36:17.693Z,0.60
2019-01-15T02:38:58.704Z,0.60
2019-01-15T02:41:40.335Z,0.50
2019-01-15T02:44:21.766Z,0.50
2019-01-15T02:47:03.124Z,0.60
2019-01-15T02:49:44.000Z,0.50
2019-01-15T02:52:24.673Z,0.50
2019-01-15T02:55:04.212Z,0.50
2019-01-15T02:57:45.471Z,0.40
2019-01-15T03:00:26.555Z,0.40
2019-01-15T03:03:07.947Z,0.50
2019-01-15T03:05:49.163Z,0.40
2019-01-15T03:08:30.080Z,0.40
2019-01-15T03:11:10.604Z,0.40
2019-01-15T03:13:51.136Z,0.40
2019-01-15T03:16:32.535Z,0.40
2019-01-15T03:19:13.812Z,0.40
2019-01-15T03:21:54.859Z,0.40
2019-01-15T03:24:35.299Z,0.40
2019-01-15T03:27:16.099Z,0.40
2019-01-15T03:29:56.706Z,0.40
2019-01-15T03:32:38.321Z,0.30
2019-01-15T03:35:19.523Z,0.30
2019-01-15T03:38:01.031Z,0.30
2019-01-15T03:40:30.825Z,0.30
2019-01-15T03:43:19.042Z,0.30
2019-01-15T03:46:07.389Z,0.30
2019-01-15T03:48:55.671Z,0.30
2019-01-15T03:51:44.527Z,0.30
2019-01-15T03:54:33.003Z,0.30
2019-01-15T03:57:21.302Z,0.30
2019-01-15T04:00:11.859Z,0.30
2019-01-15T04:03:00.145Z,0.30
2019-01-15T04:05:41.202Z,0.20
2019-01-15T04:08:22.875Z,0.20
2019-01-15T04:11:03.405Z,0.20
2019-01-15T04:13:44.759Z,0.20
2019-01-15T04:16:25.663Z,0.20
2019-01-15T04:19:06.095Z,0.20
2019-01-15T04:24:28.759Z,0.20
2019-01-15T04:27:09.416Z,0.10
2019-01-15T04:32:55.376Z,0.10
2019-01-15T04:35:36.855Z,0.10
2019-01-15T04:38:17.400Z,0.10
2019-01-15T04:40:58.435Z,0.00
2019-01-15T04:43:39.603Z,0.00
2019-01-15T04:46:20.236Z,0.00
2019-01-15T04:49:00.181Z,-0.10
2019-01-15T04:51:48.455Z,0.00
2019-01-15T04:54:29.000Z,-0.10
2019-01-15T05:00:29.788Z,-0.10
2019-01-15T05:03:12.287Z,-0.10
2019-01-15T05:05:52.751Z,-0.10
2019-01-15T05:08:34.555Z,-0.10
2019-01-15T05:11:15.286Z,-0.10
2019-01-15T05:13:58.573Z,-0.10
2019-01-15T05:19:13.535Z,-0.10
2019-01-15T05:22:02.312Z,-0.10
2019-01-15T05:24:50.576Z,-0.10
2019-01-15T05:27:39.640Z,-0.10
2019-01-15T05:30:29.690Z,-0.10
2019-01-15T05:36:12.282Z,-0.10
2019-01-15T05:39:00.902Z,-0.10
2019-01-15T05:41:41.887Z,-0.10
2019-01-15T05:44:11.130Z,-0.20
2019-01-15T05:47:03.507Z,-0.10
2019-01-15T05:49:52.371Z,-0.10
2019-01-15T05:52:22.095Z,-0.10
2019-01-15T05:55:10.689Z,-0.10
2019-01-15T05:57:59.278Z,-0.20
2019-01-15T06:00:47.799Z,-0.10
2019-01-15T06:03:36.054Z,-0.10
2019-01-15T06:06:24.575Z,-0.10
2019-01-15T06:09:12.825Z,-0.10
2019-01-15T06:12:01.087Z,-0.10
2019-01-15T06:14:49.307Z,-0.10
2019-01-15T06:17:18.471Z,-0.10
2019-01-15T06:20:07.431Z,-0.10
2019-01-15T06:26:38.491Z,-0.10
2019-01-15T06:29:26.710Z,-0.10
2019-01-15T06:32:14.967Z,0.10
2019-01-15T06:34:56.152Z,0.20
2019-01-15T06:37:36.957Z,0.20
2019-01-15T06:40:17.631Z,0.10
2019-01-15T06:42:58.856Z,0.10
2019-01-15T06:49:01.727Z,0.10
2019-01-15T06:51:42.236Z,0.10
2019-01-15T06:54:23.108Z,0.10
2019-01-15T07:03:19.118Z,0.10
2019-01-15T07:05:59.843Z,0.10
2019-01-15T07:08:40.782Z,0.10
2019-01-15T07:11:22.064Z,0.10
2019-01-15T07:14:03.067Z,0.10
2019-01-15T07:16:43.688Z,0.10
2019-01-15T07:19:24.261Z,0.20
2019-01-15T07:22:05.841Z,0.10
2019-01-15T07:24:47.144Z,0.10
2019-01-15T07:27:28.471Z,0.10
2019-01-15T07:30:10.164Z,0.10
2019-01-15T07:32:51.540Z,0.10
2019-01-15T07:35:32.667Z,0.20
2019-01-15T07:38:15.168Z,0.20
2019-01-15T07:40:56.407Z,0.20
2019-01-15T07:49:33.956Z,0.20
2019-01-15T07:56:02.888Z,0.20
2019-01-15T07:58:51.743Z,0.20
2019-01-15T08:04:16.511Z,0.20
2019-01-15T08:10:47.493Z,0.20
2019-01-15T08:13:36.092Z,0.20
2019-01-15T08:16:24.597Z,0.20
2019-01-15T08:19:12.851Z,0.30
2019-01-15T08:22:01.336Z,0.30
2019-01-15T08:24:49.595Z,0.30
2019-01-15T08:27:38.202Z,0.30
2019-01-15T08:30:33.963Z,0.40
2019-01-15T08:33:22.443Z,0.40
2019-01-15T08:36:03.287Z,0.40
2019-01-15T08:38:44.335Z,0.50
2019-01-15T08:41:25.282Z,0.50
2019-01-15T08:44:05.871Z,0.50
2019-01-15T08:46:47.387Z,0.50
2019-01-15T08:49:28.547Z,0.50
2019-01-15T08:52:09.813Z,0.60
2019-01-15T08:54:50.820Z,0.60
2019-01-15T08:57:32.087Z,0.60
2019-01-15T09:00:13.558Z,0.70
2019-01-15T09:02:54.623Z,0.70
2019-01-15T09:08:18.794Z,0.70
2019-01-15T09:10:59.787Z,0.70
2019-01-15T09:13:40.659Z,0.80
2019-01-15T09:16:21.920Z,0.80
2019-01-15T09:19:03.071Z,0.80
2019-01-15T09:21:44.407Z,0.80
2019-01-15T09:27:44.217Z,1.10
2019-01-15T09:30:25.533Z,1.10
2019-01-15T09:33:06.456Z,1.10
2019-01-15T09:41:57.636Z,1.20
2019-01-15T09:44:39.077Z,1.10
2019-01-15T09:50:35.858Z,1.20
2019-01-15T09:53:17.383Z,1.30
2019-01-15T09:55:58.810Z,1.40
2019-01-15T09:58:42.592Z,1.50
2019-01-15T10:01:23.787Z,1.60
2019-01-15T10:04:04.647Z,1.70
2019-01-15T10:06:45.167Z,1.80
2019-01-15T10:09:26.393Z,1.90
2019-01-15T10:12:07.490Z,2.00
2019-01-15T10:14:48.631Z,2.00
2019-01-15T10:17:30.067Z,2.10
2019-01-15T10:20:10.808Z,2.10
2019-01-15T10:22:52.012Z,2.20
2019-01-15T10:25:33.047Z,2.30
2019-01-15T10:28:15.394Z,2.40
2019-01-15T10:30:57.219Z,2.40
2019-01-15T10:33:38.058Z,2.50
2019-01-15T10:36:19.367Z,2.60
2019-01-15T10:39:00.023Z,2.60
2019-01-15T10:41:40.457Z,2.70
2019-01-15T10:44:21.826Z,2.70
2019-01-15T10:47:02.935Z,2.80
2019-01-15T10:49:44.429Z,2.80
2019-01-15T10:52:26.822Z,2.90
2019-01-15T10:55:07.795Z,3.10
2019-01-15T10:57:48.247Z,3.20
2019-01-15T11:00:28.027Z,3.20
2019-01-15T11:03:16.251Z,3.40
2019-01-15T11:06:05.306Z,3.40
2019-01-15T11:08:53.863Z,3.40
2019-01-15T11:11:42.459Z,3.50
2019-01-15T11:17:45.051Z,3.40
2019-01-15T11:20:33.416Z,3.40
2019-01-15T11:23:21.927Z,3.40
2019-01-15T11:26:10.147Z,3.40
2019-01-15T11:28:58.423Z,3.40
2019-01-15T11:31:46.679Z,3.50
2019-01-15T11:34:34.940Z,3.50
2019-01-15T11:37:16.223Z,3.60
2019-01-15T11:40:16.173Z,3.60
2019-01-15T11:46:14.189Z,3.80
2019-01-15T11:49:14.511Z,3.90
2019-01-15T11:51:55.643Z,3.90
2019-01-15T11:54:36.379Z,4.00
2019-01-15T11:57:17.095Z,4.10
2019-01-15T12:00:17.475Z,4.20
2019-01-15T12:06:22.023Z,4.20
2019-01-15T12:12:29.718Z,4.20
2019-01-15T12:15:37.281Z,4.20
2019-01-15T12:18:44.824Z,4.20
2019-01-15T12:21:52.135Z,4.20
2019-01-15T12:24:59.376Z,4.10
2019-01-15T12:28:06.651Z,4.10
2019-01-15T12:31:02.464Z,4.10
2019-01-15T12:34:10.063Z,4.00
2019-01-15T12:39:52.238Z,4.00
2019-01-15T12:46:09.252Z,3.90
2019-01-15T12:49:09.648Z,3.90
2019-01-15T12:52:16.276Z,3.90
2019-01-15T12:55:16.723Z,3.90
2019-01-15T12:58:19.583Z,3.90
2019-01-15T13:01:19.971Z,3.90
2019-01-15T13:04:22.343Z,3.90
2019-01-15T13:07:27.599Z,3.90
2019-01-15T13:10:27.939Z,3.80
2019-01-15T13:13:26.920Z,3.80
2019-01-15T13:16:18.660Z,3.80
2019-01-15T13:19:21.512Z,3.80
2019-01-15T13:22:24.995Z,3.80
2019-01-15T13:25:28.556Z,3.80
2019-01-15T13:28:12.749Z,3.70
2019-01-15T13:31:00.939Z,3.70
2019-01-15T13:34:24.552Z,3.70
2019-01-15T13:37:24.792Z,3.70
2019-01-15T13:40:15.554Z,3.80
2019-01-15T13:43:15.531Z,3.70
2019-01-15T13:46:20.944Z,3.70
2019-01-15T13:49:20.524Z,3.70
2019-01-15T13:55:25.695Z,3.70
2019-01-15T13:58:25.423Z,3.70
2019-01-15T14:01:24.946Z,3.70
2019-01-15T14:04:30.883Z,3.70
2019-01-15T14:07:30.779Z,3.70
2019-01-15T14:10:30.348Z,3.70
2019-01-15T14:13:30.599Z,3.70
2019-01-15T14:16:36.927Z,3.70
2019-01-15T14:19:37.625Z,3.60
2019-01-15T14:25:48.350Z,3.60
2019-01-15T14:28:46.223Z,3.60
2019-01-15T14:31:46.043Z,3.60
2019-01-15T14:34:45.655Z,3.50
2019-01-15T14:37:46.056Z,3.50
2019-01-15T14:40:45.572Z,3.50
2019-01-15T14:47:04.667Z,3.50
2019-01-15T14:50:04.187Z,3.50
2019-01-15T14:53:03.752Z,3.50
2019-01-15T14:56:09.784Z,3.50
2019-01-15T14:59:09.203Z,3.50
2019-01-15T15:05:31.267Z,3.40
2019-01-15T15:11:48.991Z,3.40
2019-01-15T15:14:49.119Z,3.40
2019-01-15T15:17:48.583Z,3.40
2019-01-15T15:20:51.842Z,3.40
2019-01-15T15:23:36.188Z,3.40
2019-01-15T15:26:36.691Z,3.40
2019-01-15T15:29:39.400Z,3.40
2019-01-15T15:32:21.771Z,3.40
2019-01-15T15:41:44.476Z,3.30
2019-01-15T15:44:44.239Z,3.20
2019-01-15T15:47:44.439Z,3.20
2019-01-15T15:50:31.743Z,3.20
2019-01-15T15:53:28.334Z,3.10
2019-01-15T15:59:46.604Z,3.10
2019-01-15T16:02:46.103Z,3.00
2019-01-15T16:05:45.548Z,3.00
2019-01-15T16:08:45.689Z,3.00
2019-01-15T16:11:47.252Z,3.00
2019-01-15T16:14:38.803Z,2.90
2019-01-15T16:17:38.764Z,3.00
2019-01-15T16:20:41.628Z,3.00
2019-01-15T16:23:34.900Z,3.00
2019-01-15T16:26:34.947Z,3.00
2019-01-15T16:29:35.235Z,2.90
2019-01-15T16:32:26.936Z,2.90
2019-01-15T16:35:27.468Z,2.90
2019-01-15T16:38:21.368Z,2.90
2019-01-15T16:41:02.100Z,2.80
2019-01-15T16:44:02.541Z,2.80
2019-01-15T16:47:08.110Z,2.90
2019-01-15T16:53:26.944Z,2.90
2019-01-15T16:56:26.560Z,2.90
2019-01-15T17:02:43.357Z,3.30
2019-01-15T17:05:43.449Z,3.30
2019-01-15T17:08:43.428Z,3.20
2019-01-15T17:11:43.119Z,3.10
2019-01-15T17:14:45.704Z,3.10
2019-01-15T17:17:47.190Z,3.00
2019-01-15T17:20:47.661Z,3.00
2019-01-15T17:23:48.087Z,2.90
2019-01-15T17:32:52.039Z,2.90
2019-01-15T17:35:46.067Z,2.90
2019-01-15T17:38:48.034Z,2.90
2019-01-15T17:41:51.112Z,2.80
2019-01-15T17:44:44.291Z,2.80
2019-01-15T17:47:39.920Z,2.80
2019-01-15T17:50:39.863Z,2.80
2019-01-15T17:53:39.951Z,2.80
2019-01-15T17:56:30.128Z,2.80
2019-01-15T17:59:24.754Z,2.80
2019-01-15T18:02:24.799Z,2.80
2019-01-15T18:05:24.841Z,2.80
2019-01-15T18:11:28.407Z,2.80
2019-01-15T18:14:28.702Z,2.80
2019-01-15T18:17:28.306Z,2.90
2019-01-15T18:20:27.779Z,2.80
2019-01-15T18:23:16.335Z,2.80
2019-01-15T18:26:23.583Z,2.90
2019-01-15T18:29:30.907Z,2.80
2019-01-15T18:32:33.176Z,2.80
2019-01-15T18:35:40.399Z,2.80
2019-01-15T18:38:47.681Z,2.80
2019-01-15T18:41:35.915Z,2.80
2019-01-15T18:44:43.208Z,2.80
2019-01-15T18:47:31.352Z,2.80
2019-01-15T18:50:38.915Z,2.80
2019-01-15T18:53:40.175Z,2.80
2019-01-15T18:56:47.755Z,2.80
2019-01-15T18:59:55.282Z,2.80
2019-01-15T19:03:02.630Z,2.80
2019-01-15T19:06:10.212Z,2.80
2019-01-15T19:09:17.587Z,2.80
2019-01-15T19:12:24.868Z,2.80
2019-01-15T19:15:32.321Z,2.80
2019-01-15T19:18:39.661Z,2.80
2019-01-15T19:21:46.929Z,2.80
2019-01-15T19:24:54.447Z,2.80
2019-01-15T19:31:27.799Z,2.80
2019-01-15T19:34:35.303Z,2.80
2019-01-15T19:37:42.855Z,2.70
2019-01-15T19:43:47.167Z,2.80
2019-01-15T19:46:40.577Z,2.70
2019-01-15T19:53:00.838Z,2.80
2019-01-15T19:59:08.727Z,2.70
2019-01-15T20:02:11.556Z,2.70
2019-01-15T20:05:17.278Z,2.70
2019-01-15T20:08:04.115Z,2.70
2019-01-15T20:11:10.621Z,2.70
2019-01-15T20:14:10.987Z,2.70
2019-01-15T20:20:23.764Z,2.70
2019-01-15T20:25:54.534Z,2.70
2019-01-15T20:29:01.779Z,2.70
2019-01-15T20:32:09.060Z,2.70
2019-01-15T20:35:16.652Z,2.70
2019-01-15T20:38:14.375Z,2.70
2019-01-15T20:41:14.500Z,2.80
2019-01-15T20:44:14.078Z,2.80
2019-01-15T20:47:16.462Z,2.80
2019-01-15T20:50:13.503Z,2.90
2019-01-15T20:53:10.427Z,2.90
2019-01-15T20:56:10.691Z,2.90
2019-01-15T20:59:16.646Z,2.90
2019-01-15T21:02:22.475Z,2.90
2019-01-15T21:08:26.702Z,2.90
2019-01-15T21:11:27.032Z,2.80
2019-01-15T21:17:15.764Z,2.80
2019-01-15T21:19:57.860Z,2.80
2019-01-15T21:25:45.529Z,2.70
2019-01-15T21:28:33.720Z,2.80
2019-01-15T21:31:40.995Z,2.70
2019-01-15T21:34:43.727Z,2.80
2019-01-15T21:37:51.004Z,2.80
2019-01-15T21:40:53.966Z,2.70
2019-01-15T21:43:46.083Z,2.70
2019-01-15T21:46:46.001Z,2.70
2019-01-15T21:49:42.972Z,2.70
2019-01-15T21:52:47.671Z,2.70
2019-01-15T21:55:51.355Z,2.60
2019-01-15T21:58:50.927Z,2.70
2019-01-15T22:04:42.335Z,2.70
2019-01-15T22:07:49.567Z,2.70
2019-01-15T22:10:56.834Z,2.70
2019-01-15T22:14:04.372Z,2.70
2019-01-15T22:17:11.603Z,2.70
2019-01-15T22:20:06.423Z,2.70
2019-01-15T22:23:13.996Z,2.70
2019-01-15T22:26:21.256Z,2.70
2019-01-15T22:29:28.539Z,2.70
2019-01-15T22:32:35.803Z,2.60
2019-01-15T22:35:43.079Z,2.60
2019-01-15T22:38:44.339Z,2.60
2019-01-15T22:41:44.863Z,2.50
2019-01-15T22:44:40.676Z,2.50
2019-01-15T22:47:40.827Z,2.50
2019-01-15T22:50:40.532Z,2.50
2019-01-15T22:53:40.451Z,2.50
2019-01-15T22:56:34.211Z,2.50
2019-01-15T22:59:34.535Z,2.50
2019-01-15T23:02:33.997Z,2.50
2019-01-15T23:05:34.566Z,2.50
2019-01-15T23:08:34.364Z,2.40
2019-01-15T23:11:34.099Z,2.50
2019-01-15T23:14:33.601Z,2.50
2019-01-15T23:17:33.140Z,2.40
2019-01-15T23:26:56.258Z,2.40
2019-01-15T23:29:52.724Z,2.40
2019-01-15T23:32:52.904Z,2.30
2019-01-15T23:35:52.512Z,2.30
2019-01-15T23:38:46.822Z,2.30
2019-01-15T23:41:46.728Z,2.30
2019-01-15T23:44:33.897Z,2.30
2019-01-15T23:47:26.722Z,2.30
2019-01-15T23:50:27.066Z,2.30
2019-01-15T23:53:27.281Z,2.30
2019-01-15T23:56:27.498Z,2.30
2019-01-15T23:59:27.675Z,2.30
